sensor_id;sensor_type;location;lat;lon;timestamp;P1;durP1;ratioP1;P2;durP2;ratioP2
24090;SDS011;12272;52.426;17.100;2023-02-15T00:00:39;64.97;;;39.57;;
24090;SDS011;12272;52.426;17.100;2023-02-15T00:05:41;69.53;;;38.93;;
24090;SDS011;12272;52.426;17.100;2023-02-15T00:10:44;74.93;;;41.47;;
24090;SDS011;12272;52.426;17.100;2023-02-15T00:15:47;78.47;;;42.63;;
24090;SDS011;12272;52.426;17.100;2023-02-15T00:20:49;88.33;;;48.13;;
24090;SDS011;12272;52.426;17.100;2023-02-15T00:25:52;86.07;;;46.50;;
24090;SDS011;12272;52.426;17.100;2023-02-15T00:31:08;86.97;;;46.60;;
24090;SDS011;12272;52.426;17.100;2023-02-15T00:36:12;86.67;;;45.37;;
24090;SDS011;12272;52.426;17.100;2023-02-15T00:41:15;91.17;;;49.07;;
24090;SDS011;12272;52.426;17.100;2023-02-15T00:46:17;76.33;;;42.07;;
24090;SDS011;12272;52.426;17.100;2023-02-15T00:51:20;71.13;;;38.50;;
24090;SDS011;12272;52.426;17.100;2023-02-15T00:56:22;68.83;;;39.20;;
24090;SDS011;12272;52.426;17.100;2023-02-15T01:01:25;70.20;;;38.80;;
24090;SDS011;12272;52.426;17.100;2023-02-15T01:06:28;73.10;;;38.97;;
24090;SDS011;12272;52.426;17.100;2023-02-15T01:11:31;70.50;;;38.13;;
24090;SDS011;12272;52.426;17.100;2023-02-15T01:16:33;74.30;;;39.60;;
24090;SDS011;12272;52.426;17.100;2023-02-15T01:21:36;76.37;;;42.27;;
24090;SDS011;12272;52.426;17.100;2023-02-15T01:26:39;80.27;;;43.63;;
24090;SDS011;12272;52.426;17.100;2023-02-15T01:31:41;78.03;;;43.37;;
24090;SDS011;12272;52.426;17.100;2023-02-15T01:36:44;78.67;;;40.67;;
24090;SDS011;12272;52.426;17.100;2023-02-15T01:41:49;72.80;;;39.47;;
24090;SDS011;12272;52.426;17.100;2023-02-15T01:46:52;71.17;;;38.70;;
24090;SDS011;12272;52.426;17.100;2023-02-15T01:51:56;67.67;;;40.80;;
24090;SDS011;12272;52.426;17.100;2023-02-15T01:57:07;65.40;;;36.20;;
24090;SDS011;12272;52.426;17.100;2023-02-15T02:02:14;63.77;;;37.97;;
24090;SDS011;12272;52.426;17.100;2023-02-15T02:07:24;60.43;;;37.50;;
24090;SDS011;12272;52.426;17.100;2023-02-15T02:12:34;78.13;;;39.50;;
24090;SDS011;12272;52.426;17.100;2023-02-15T02:17:57;68.63;;;37.83;;
24090;SDS011;12272;52.426;17.100;2023-02-15T02:44:53;75.47;;;41.83;;
24090;SDS011;12272;52.426;17.100;2023-02-15T02:50:04;68.87;;;40.97;;
24090;SDS011;12272;52.426;17.100;2023-02-15T03:00:20;70.33;;;38.77;;
24090;SDS011;12272;52.426;17.100;2023-02-15T03:05:25;67.90;;;37.20;;
24090;SDS011;12272;52.426;17.100;2023-02-15T03:10:32;64.67;;;37.63;;
24090;SDS011;12272;52.426;17.100;2023-02-15T03:15:39;63.40;;;38.30;;
24090;SDS011;12272;52.426;17.100;2023-02-15T03:21:02;65.17;;;38.23;;
24090;SDS011;12272;52.426;17.100;2023-02-15T03:26:10;65.37;;;38.90;;
24090;SDS011;12272;52.426;17.100;2023-02-15T03:31:13;66.63;;;41.07;;
24090;SDS011;12272;52.426;17.100;2023-02-15T03:36:20;66.10;;;39.40;;
24090;SDS011;12272;52.426;17.100;2023-02-15T03:41:39;65.80;;;39.83;;
24090;SDS011;12272;52.426;17.100;2023-02-15T03:46:50;64.50;;;40.23;;
24090;SDS011;12272;52.426;17.100;2023-02-15T03:51:58;55.40;;;35.03;;
24090;SDS011;12272;52.426;17.100;2023-02-15T03:57:02;60.30;;;35.97;;
24090;SDS011;12272;52.426;17.100;2023-02-15T04:02:24;58.50;;;34.90;;
24090;SDS011;12272;52.426;17.100;2023-02-15T04:07:36;66.87;;;38.70;;
24090;SDS011;12272;52.426;17.100;2023-02-15T04:12:38;55.53;;;35.23;;
24090;SDS011;12272;52.426;17.100;2023-02-15T04:17:41;59.40;;;37.47;;
24090;SDS011;12272;52.426;17.100;2023-02-15T04:22:43;55.10;;;33.87;;
24090;SDS011;12272;52.426;17.100;2023-02-15T04:28:04;55.10;;;35.13;;
24090;SDS011;12272;52.426;17.100;2023-02-15T04:33:09;58.80;;;36.83;;
24090;SDS011;12272;52.426;17.100;2023-02-15T04:38:12;61.07;;;37.33;;
24090;SDS011;12272;52.426;17.100;2023-02-15T04:43:15;68.73;;;39.97;;
24090;SDS011;12272;52.426;17.100;2023-02-15T04:48:17;60.80;;;37.67;;
24090;SDS011;12272;52.426;17.100;2023-02-15T04:53:20;63.60;;;38.23;;
24090;SDS011;12272;52.426;17.100;2023-02-15T04:58:22;71.60;;;40.30;;
24090;SDS011;12272;52.426;17.100;2023-02-15T05:03:25;59.33;;;37.50;;
24090;SDS011;12272;52.426;17.100;2023-02-15T05:08:28;69.20;;;41.37;;
24090;SDS011;12272;52.426;17.100;2023-02-15T05:13:30;63.73;;;38.67;;
24090;SDS011;12272;52.426;17.100;2023-02-15T05:18:33;62.70;;;37.97;;
24090;SDS011;12272;52.426;17.100;2023-02-15T05:23:36;60.97;;;35.93;;
24090;SDS011;12272;52.426;17.100;2023-02-15T05:28:38;65.77;;;40.40;;
24090;SDS011;12272;52.426;17.100;2023-02-15T05:33:41;68.00;;;40.40;;
24090;SDS011;12272;52.426;17.100;2023-02-15T05:38:44;66.70;;;39.73;;
24090;SDS011;12272;52.426;17.100;2023-02-15T05:43:47;64.07;;;39.03;;
24090;SDS011;12272;52.426;17.100;2023-02-15T05:48:50;37.60;;;21.93;;
24090;SDS011;12272;52.426;17.100;2023-02-15T05:53:52;75.97;;;49.90;;
24090;SDS011;12272;52.426;17.100;2023-02-15T05:58:55;95.10;;;57.60;;
24090;SDS011;12272;52.426;17.100;2023-02-15T06:03:57;115.07;;;62.07;;
24090;SDS011;12272;52.426;17.100;2023-02-15T06:09:00;109.73;;;64.13;;
24090;SDS011;12272;52.426;17.100;2023-02-15T06:14:03;115.63;;;63.43;;
24090;SDS011;12272;52.426;17.100;2023-02-15T06:19:06;121.60;;;66.97;;
24090;SDS011;12272;52.426;17.100;2023-02-15T06:24:09;101.43;;;50.20;;
24090;SDS011;12272;52.426;17.100;2023-02-15T06:29:11;65.53;;;33.80;;
24090;SDS011;12272;52.426;17.100;2023-02-15T06:34:14;70.77;;;38.73;;
24090;SDS011;12272;52.426;17.100;2023-02-15T06:39:17;66.77;;;38.17;;
24090;SDS011;12272;52.426;17.100;2023-02-15T06:44:19;74.90;;;40.87;;
24090;SDS011;12272;52.426;17.100;2023-02-15T06:49:22;74.43;;;44.20;;
24090;SDS011;12272;52.426;17.100;2023-02-15T06:54:24;56.97;;;30.70;;
24090;SDS011;12272;52.426;17.100;2023-02-15T06:59:27;70.23;;;42.43;;
24090;SDS011;12272;52.426;17.100;2023-02-15T07:04:30;75.37;;;46.07;;
24090;SDS011;12272;52.426;17.100;2023-02-15T07:09:32;73.73;;;43.30;;
24090;SDS011;12272;52.426;17.100;2023-02-15T07:14:35;67.37;;;40.90;;
24090;SDS011;12272;52.426;17.100;2023-02-15T07:19:38;82.50;;;46.63;;
24090;SDS011;12272;52.426;17.100;2023-02-15T07:24:40;77.43;;;48.13;;
24090;SDS011;12272;52.426;17.100;2023-02-15T07:29:43;83.97;;;49.10;;
24090;SDS011;12272;52.426;17.100;2023-02-15T07:34:45;70.47;;;42.67;;
24090;SDS011;12272;52.426;17.100;2023-02-15T07:39:48;66.63;;;40.47;;
24090;SDS011;12272;52.426;17.100;2023-02-15T07:44:50;62.40;;;37.70;;
24090;SDS011;12272;52.426;17.100;2023-02-15T07:49:54;58.10;;;34.70;;
24090;SDS011;12272;52.426;17.100;2023-02-15T07:54:57;43.40;;;28.37;;
24090;SDS011;12272;52.426;17.100;2023-02-15T07:59:59;51.20;;;32.77;;
24090;SDS011;12272;52.426;17.100;2023-02-15T08:05:02;53.50;;;32.90;;
24090;SDS011;12272;52.426;17.100;2023-02-15T08:10:05;50.73;;;29.80;;
24090;SDS011;12272;52.426;17.100;2023-02-15T08:15:08;45.77;;;29.13;;
24090;SDS011;12272;52.426;17.100;2023-02-15T08:20:10;48.70;;;30.67;;
24090;SDS011;12272;52.426;17.100;2023-02-15T08:25:13;46.60;;;29.40;;
24090;SDS011;12272;52.426;17.100;2023-02-15T08:30:16;51.00;;;30.37;;
24090;SDS011;12272;52.426;17.100;2023-02-15T08:35:20;43.40;;;28.30;;
24090;SDS011;12272;52.426;17.100;2023-02-15T08:40:22;43.10;;;27.27;;
24090;SDS011;12272;52.426;17.100;2023-02-15T08:45:25;49.97;;;27.63;;
24090;SDS011;12272;52.426;17.100;2023-02-15T08:50:27;47.97;;;28.83;;
24090;SDS011;12272;52.426;17.100;2023-02-15T08:55:30;40.83;;;29.40;;
24090;SDS011;12272;52.426;17.100;2023-02-15T09:00:33;38.43;;;26.47;;
24090;SDS011;12272;52.426;17.100;2023-02-15T09:05:35;48.43;;;29.37;;
24090;SDS011;12272;52.426;17.100;2023-02-15T09:10:38;35.97;;;23.83;;
24090;SDS011;12272;52.426;17.100;2023-02-15T09:15:41;42.07;;;27.10;;
24090;SDS011;12272;52.426;17.100;2023-02-15T09:20:47;34.97;;;20.50;;
24090;SDS011;12272;52.426;17.100;2023-02-15T09:26:10;34.10;;;21.70;;
24090;SDS011;12272;52.426;17.100;2023-02-15T09:31:18;34.63;;;22.83;;
24090;SDS011;12272;52.426;17.100;2023-02-15T09:36:27;35.63;;;22.60;;
24090;SDS011;12272;52.426;17.100;2023-02-15T10:13:38;42.10;;;27.17;;
24090;SDS011;12272;52.426;17.100;2023-02-15T10:34:38;51.87;;;31.63;;
24090;SDS011;12272;52.426;17.100;2023-02-15T10:50:20;45.57;;;29.50;;
24090;SDS011;12272;52.426;17.100;2023-02-15T11:01:20;45.73;;;27.77;;
24090;SDS011;12272;52.426;17.100;2023-02-15T11:06:32;49.40;;;30.03;;
24090;SDS011;12272;52.426;17.100;2023-02-15T11:11:37;43.13;;;26.80;;
24090;SDS011;12272;52.426;17.100;2023-02-15T11:16:49;42.73;;;26.53;;
24090;SDS011;12272;52.426;17.100;2023-02-15T11:21:56;44.27;;;25.87;;
24090;SDS011;12272;52.426;17.100;2023-02-15T11:27:05;45.37;;;29.07;;
24090;SDS011;12272;52.426;17.100;2023-02-15T11:32:18;47.33;;;29.70;;
24090;SDS011;12272;52.426;17.100;2023-02-15T11:37:24;33.23;;;20.63;;
24090;SDS011;12272;52.426;17.100;2023-02-15T11:42:40;51.10;;;32.00;;
24090;SDS011;12272;52.426;17.100;2023-02-15T11:47:44;47.43;;;30.87;;
24090;SDS011;12272;52.426;17.100;2023-02-15T11:52:48;46.40;;;30.17;;
24090;SDS011;12272;52.426;17.100;2023-02-15T11:57:53;43.80;;;28.37;;
24090;SDS011;12272;52.426;17.100;2023-02-15T12:02:57;52.57;;;32.80;;
24090;SDS011;12272;52.426;17.100;2023-02-15T12:08:01;41.03;;;25.43;;
24090;SDS011;12272;52.426;17.100;2023-02-15T12:13:11;55.73;;;34.47;;
24090;SDS011;12272;52.426;17.100;2023-02-15T12:18:31;51.17;;;31.00;;
24090;SDS011;12272;52.426;17.100;2023-02-15T12:23:42;48.83;;;28.90;;
24090;SDS011;12272;52.426;17.100;2023-02-15T12:28:50;57.83;;;35.90;;
24090;SDS011;12272;52.426;17.100;2023-02-15T12:33:56;55.33;;;31.20;;
24090;SDS011;12272;52.426;17.100;2023-02-15T12:49:31;62.10;;;36.23;;
24090;SDS011;12272;52.426;17.100;2023-02-15T12:54:39;42.37;;;24.50;;
24090;SDS011;12272;52.426;17.100;2023-02-15T13:05:04;50.87;;;32.33;;
24090;SDS011;12272;52.426;17.100;2023-02-15T13:10:41;66.43;;;37.83;;
24090;SDS011;12272;52.426;17.100;2023-02-15T13:16:13;32.67;;;18.23;;
24090;SDS011;12272;52.426;17.100;2023-02-15T13:21:30;36.47;;;24.17;;
24090;SDS011;12272;52.426;17.100;2023-02-15T13:26:39;37.27;;;23.67;;
24090;SDS011;12272;52.426;17.100;2023-02-15T13:31:46;51.63;;;31.13;;
24090;SDS011;12272;52.426;17.100;2023-02-15T13:37:25;52.20;;;32.87;;
24090;SDS011;12272;52.426;17.100;2023-02-15T13:42:40;59.33;;;37.57;;
24090;SDS011;12272;52.426;17.100;2023-02-15T14:04:26;36.70;;;22.90;;
24090;SDS011;12272;52.426;17.100;2023-02-15T14:20:29;65.40;;;37.90;;
24090;SDS011;12272;52.426;17.100;2023-02-15T14:30:50;71.57;;;38.87;;
24090;SDS011;12272;52.426;17.100;2023-02-15T14:35:54;63.80;;;37.03;;
24090;SDS011;12272;52.426;17.100;2023-02-15T14:41:01;68.80;;;41.43;;
24090;SDS011;12272;52.426;17.100;2023-02-15T14:56:42;70.20;;;40.80;;
24090;SDS011;12272;52.426;17.100;2023-02-15T15:07:16;60.73;;;37.83;;
24090;SDS011;12272;52.426;17.100;2023-02-15T15:22:39;70.37;;;38.23;;
24090;SDS011;12272;52.426;17.100;2023-02-15T15:49:02;63.30;;;38.40;;
24090;SDS011;12272;52.426;17.100;2023-02-15T15:54:20;64.87;;;39.80;;
24090;SDS011;12272;52.426;17.100;2023-02-15T15:59:26;62.60;;;38.77;;
24090;SDS011;12272;52.426;17.100;2023-02-15T16:04:32;66.33;;;37.90;;
24090;SDS011;12272;52.426;17.100;2023-02-15T16:09:36;70.13;;;42.23;;
24090;SDS011;12272;52.426;17.100;2023-02-15T16:14:39;90.27;;;48.47;;
24090;SDS011;12272;52.426;17.100;2023-02-15T16:19:43;109.40;;;59.80;;
24090;SDS011;12272;52.426;17.100;2023-02-15T16:35:41;62.77;;;36.90;;
24090;SDS011;12272;52.426;17.100;2023-02-15T16:40:59;95.17;;;51.90;;
24090;SDS011;12272;52.426;17.100;2023-02-15T16:46:05;109.40;;;65.07;;
24090;SDS011;12272;52.426;17.100;2023-02-15T16:51:18;122.27;;;66.20;;
24090;SDS011;12272;52.426;17.100;2023-02-15T16:56:29;100.87;;;54.03;;
24090;SDS011;12272;52.426;17.100;2023-02-15T17:01:33;103.20;;;58.83;;
24090;SDS011;12272;52.426;17.100;2023-02-15T17:06:36;89.77;;;51.87;;
24090;SDS011;12272;52.426;17.100;2023-02-15T17:11:42;89.63;;;52.10;;
24090;SDS011;12272;52.426;17.100;2023-02-15T17:16:59;80.60;;;48.33;;
24090;SDS011;12272;52.426;17.100;2023-02-15T17:22:24;73.47;;;43.67;;
24090;SDS011;12272;52.426;17.100;2023-02-15T17:27:32;87.60;;;48.40;;
24090;SDS011;12272;52.426;17.100;2023-02-15T17:32:36;81.03;;;47.43;;
24090;SDS011;12272;52.426;17.100;2023-02-15T17:42:42;107.73;;;59.50;;
24090;SDS011;12272;52.426;17.100;2023-02-15T17:47:45;94.90;;;52.60;;
24090;SDS011;12272;52.426;17.100;2023-02-15T17:52:50;98.47;;;57.60;;
24090;SDS011;12272;52.426;17.100;2023-02-15T17:57:54;109.07;;;63.43;;
24090;SDS011;12272;52.426;17.100;2023-02-15T18:02:56;142.60;;;78.87;;
24090;SDS011;12272;52.426;17.100;2023-02-15T18:08:18;147.87;;;82.57;;
24090;SDS011;12272;52.426;17.100;2023-02-15T18:13:45;198.53;;;110.53;;
24090;SDS011;12272;52.426;17.100;2023-02-15T18:18:48;240.50;;;127.27;;
24090;SDS011;12272;52.426;17.100;2023-02-15T18:23:51;294.27;;;158.57;;
24090;SDS011;12272;52.426;17.100;2023-02-15T18:28:54;321.27;;;176.30;;
24090;SDS011;12272;52.426;17.100;2023-02-15T18:33:57;297.27;;;163.13;;
24090;SDS011;12272;52.426;17.100;2023-02-15T18:39:01;209.50;;;113.57;;
24090;SDS011;12272;52.426;17.100;2023-02-15T18:44:12;300.03;;;151.37;;
24090;SDS011;12272;52.426;17.100;2023-02-15T18:49:15;147.70;;;77.57;;
24090;SDS011;12272;52.426;17.100;2023-02-15T18:54:18;109.27;;;63.20;;
24090;SDS011;12272;52.426;17.100;2023-02-15T18:59:24;115.37;;;65.10;;
24090;SDS011;12272;52.426;17.100;2023-02-15T19:04:28;123.40;;;68.67;;
24090;SDS011;12272;52.426;17.100;2023-02-15T19:09:30;116.87;;;63.50;;
24090;SDS011;12272;52.426;17.100;2023-02-15T19:14:33;110.57;;;61.60;;
24090;SDS011;12272;52.426;17.100;2023-02-15T19:19:36;101.17;;;55.53;;
24090;SDS011;12272;52.426;17.100;2023-02-15T19:24:39;133.97;;;68.67;;
24090;SDS011;12272;52.426;17.100;2023-02-15T19:29:44;115.13;;;63.90;;
24090;SDS011;12272;52.426;17.100;2023-02-15T19:34:47;113.90;;;64.57;;
24090;SDS011;12272;52.426;17.100;2023-02-15T19:39:50;118.47;;;65.40;;
24090;SDS011;12272;52.426;17.100;2023-02-15T19:44:53;126.67;;;69.37;;
24090;SDS011;12272;52.426;17.100;2023-02-15T19:49:55;123.50;;;70.60;;
24090;SDS011;12272;52.426;17.100;2023-02-15T19:55:04;127.40;;;68.97;;
24090;SDS011;12272;52.426;17.100;2023-02-15T20:00:13;124.30;;;70.13;;
24090;SDS011;12272;52.426;17.100;2023-02-15T20:05:24;129.67;;;73.00;;
24090;SDS011;12272;52.426;17.100;2023-02-15T20:10:29;109.33;;;62.47;;
24090;SDS011;12272;52.426;17.100;2023-02-15T20:15:33;121.80;;;67.00;;
24090;SDS011;12272;52.426;17.100;2023-02-15T20:20:40;114.77;;;65.03;;
24090;SDS011;12272;52.426;17.100;2023-02-15T20:25:56;111.23;;;61.30;;
24090;SDS011;12272;52.426;17.100;2023-02-15T20:30:59;104.90;;;63.33;;
24090;SDS011;12272;52.426;17.100;2023-02-15T20:36:03;107.40;;;62.87;;
24090;SDS011;12272;52.426;17.100;2023-02-15T20:41:07;105.10;;;60.40;;
24090;SDS011;12272;52.426;17.100;2023-02-15T20:46:33;105.83;;;61.37;;
24090;SDS011;12272;52.426;17.100;2023-02-15T20:51:36;99.20;;;59.27;;
24090;SDS011;12272;52.426;17.100;2023-02-15T20:56:39;111.80;;;64.93;;
24090;SDS011;12272;52.426;17.100;2023-02-15T21:01:41;111.13;;;63.73;;
24090;SDS011;12272;52.426;17.100;2023-02-15T21:06:44;107.80;;;65.20;;
24090;SDS011;12272;52.426;17.100;2023-02-15T21:11:47;108.67;;;65.37;;
24090;SDS011;12272;52.426;17.100;2023-02-15T21:16:52;119.40;;;67.60;;
24090;SDS011;12272;52.426;17.100;2023-02-15T21:21:55;110.43;;;65.20;;
24090;SDS011;12272;52.426;17.100;2023-02-15T21:26:59;119.03;;;66.20;;
24090;SDS011;12272;52.426;17.100;2023-02-15T21:32:06;114.20;;;66.67;;
24090;SDS011;12272;52.426;17.100;2023-02-15T21:37:25;115.33;;;65.30;;
24090;SDS011;12272;52.426;17.100;2023-02-15T21:42:32;108.07;;;60.50;;
24090;SDS011;12272;52.426;17.100;2023-02-15T21:47:53;111.73;;;63.90;;
24090;SDS011;12272;52.426;17.100;2023-02-15T21:52:56;116.70;;;67.00;;
24090;SDS011;12272;52.426;17.100;2023-02-15T21:57:59;113.20;;;63.10;;
24090;SDS011;12272;52.426;17.100;2023-02-15T22:03:02;119.43;;;68.27;;
24090;SDS011;12272;52.426;17.100;2023-02-15T22:08:12;120.43;;;68.73;;
24090;SDS011;12272;52.426;17.100;2023-02-15T22:13:16;117.27;;;64.70;;
24090;SDS011;12272;52.426;17.100;2023-02-15T22:18:27;122.30;;;68.47;;
24090;SDS011;12272;52.426;17.100;2023-02-15T22:23:34;135.43;;;78.10;;
24090;SDS011;12272;52.426;17.100;2023-02-15T22:28:37;136.13;;;74.27;;
24090;SDS011;12272;52.426;17.100;2023-02-15T22:33:41;127.37;;;69.27;;
24090;SDS011;12272;52.426;17.100;2023-02-15T22:38:45;124.33;;;67.87;;
24090;SDS011;12272;52.426;17.100;2023-02-15T22:43:48;109.73;;;62.07;;
24090;SDS011;12272;52.426;17.100;2023-02-15T22:48:51;126.33;;;68.50;;
24090;SDS011;12272;52.426;17.100;2023-02-15T22:53:54;114.47;;;65.63;;
24090;SDS011;12272;52.426;17.100;2023-02-15T22:59:00;139.93;;;71.23;;
24090;SDS011;12272;52.426;17.100;2023-02-15T23:04:05;137.30;;;73.67;;
24090;SDS011;12272;52.426;17.100;2023-02-15T23:09:09;146.33;;;72.87;;
24090;SDS011;12272;52.426;17.100;2023-02-15T23:14:33;132.90;;;70.77;;
24090;SDS011;12272;52.426;17.100;2023-02-15T23:19:36;124.83;;;69.50;;
24090;SDS011;12272;52.426;17.100;2023-02-15T23:24:38;127.83;;;71.30;;
24090;SDS011;12272;52.426;17.100;2023-02-15T23:29:41;131.13;;;71.57;;
24090;SDS011;12272;52.426;17.100;2023-02-15T23:34:44;119.57;;;67.30;;
24090;SDS011;12272;52.426;17.100;2023-02-15T23:39:47;116.63;;;66.43;;
24090;SDS011;12272;52.426;17.100;2023-02-15T23:45:17;124.20;;;64.77;;
24090;SDS011;12272;52.426;17.100;2023-02-15T23:50:27;120.00;;;66.93;;
24090;SDS011;12272;52.426;17.100;2023-02-15T23:55:36;141.40;;;74.07;;
